Time;durP1;ratioP1;P1;durP2;ratioP2;P2;SDS_P1;SDS_P2;PMS_P1;PMS_P2;Temp;Humidity;BMP_temperature;BMP_pressure;BME280_temperature;BME280_humidity;BME280_pressure;Samples;Min_cycle;Max_cycle;Signal;HPM_P1;HPM_P2
2021/08/28 00:02:19;;;;;;;5.50;2.92;;;15.30;99.90;;;;;;5081639;28;20063;-76
2021/08/28 00:04:45;;;;;;;5.70;3.15;;;15.50;99.90;;;;;;5066121;28;20029;-78
2021/08/28 00:07:11;;;;;;;7.82;3.15;;;15.30;99.90;;;;;;5065815;28;20074;-75
2021/08/28 00:09:37;;;;;;;7.47;2.95;;;15.30;99.90;;;;;;5066165;28;20059;-75
2021/08/28 00:12:03;;;;;;;4.85;3.05;;;15.30;99.90;;;;;;5066305;28;20563;-75
2021/08/28 00:14:28;;;;;;;10.75;3.25;;;15.30;99.90;;;;;;5066030;28;20120;-74
2021/08/28 00:16:54;;;;;;;5.07;2.80;;;15.20;99.90;;;;;;5065856;28;20025;-74
2021/08/28 00:19:19;;;;;;;18.70;3.90;;;15.20;99.90;;;;;;5066011;28;20032;-75
2021/08/28 00:21:45;;;;;;;11.75;3.47;;;15.30;99.90;;;;;;5065999;28;20111;-75
2021/08/28 00:24:11;;;;;;;6.57;3.47;;;15.20;99.90;;;;;;5081251;28;20494;-74
2021/08/28 00:26:36;;;;;;;7.70;3.45;;;15.20;99.90;;;;;;5065847;28;20068;-74
2021/08/28 00:29:02;;;;;;;7.22;3.95;;;15.20;99.90;;;;;;5065841;28;20025;-74
2021/08/28 00:31:28;;;;;;;6.40;3.30;;;15.20;99.90;;;;;;5065781;28;20082;-74
2021/08/28 00:33:53;;;;;;;5.38;3.05;;;15.20;99.90;;;;;;5081090;28;20078;-75
2021/08/28 00:36:19;;;;;;;6.97;3.78;;;15.20;99.90;;;;;;5065811;28;20085;-76
2021/08/28 00:38:47;;;;;;;6.78;3.28;;;15.20;99.90;;;;;;5065707;28;20032;-75
2021/08/28 00:41:12;;;;;;;8.38;3.55;;;15.20;99.90;;;;;;5065627;28;20358;-74
2021/08/28 00:43:38;;;;;;;11.50;3.10;;;15.20;99.90;;;;;;5065689;28;20033;-74
2021/08/28 00:46:03;;;;;;;6.20;3.47;;;15.20;99.90;;;;;;5065320;28;20106;-73
2021/08/28 00:48:29;;;;;;;4.53;2.67;;;15.20;99.90;;;;;;5065384;28;20416;-74
2021/08/28 00:50:55;;;;;;;7.07;3.35;;;15.20;99.90;;;;;;5065349;28;20024;-73
2021/08/28 00:53:20;;;;;;;18.73;3.65;;;15.20;99.90;;;;;;5065310;28;20028;-74
2021/08/28 00:55:50;;;;;;;7.45;3.97;;;15.20;99.90;;;;;;5065508;28;20078;-75
2021/08/28 00:58:21;;;;;;;5.05;3.10;;;15.10;99.90;;;;;;5065480;28;20024;-72
2021/08/28 01:00:51;;;;;;;7.50;3.47;;;15.20;99.90;;;;;;5080782;28;20037;-73
2021/08/28 01:03:20;;;;;;;5.85;3.15;;;15.20;99.90;;;;;;5065187;28;20481;-73
2021/08/28 01:05:57;;;;;;;8.48;3.65;;;15.10;99.90;;;;;;5080487;28;20071;-74
2021/08/28 01:08:38;;;;;;;6.65;3.35;;;15.10;99.90;;;;;;5065017;28;20020;-74
2021/08/28 01:11:29;;;;;;;5.45;2.85;;;15.10;99.90;;;;;;5065125;28;20528;-72
2021/08/28 01:13:58;;;;;;;6.50;2.88;;;15.10;99.90;;;;;;5064873;28;20120;-74
2021/08/28 01:16:26;;;;;;;9.00;3.90;;;15.10;99.90;;;;;;5080099;28;20032;-74
2021/08/28 01:18:56;;;;;;;7.95;3.00;;;15.10;99.90;;;;;;5064238;28;20057;-72
2021/08/28 01:21:32;;;;;;;5.57;3.28;;;15.10;99.90;;;;;;5080043;28;20393;-74
2021/08/28 01:24:04;;;;;;;7.00;3.33;;;15.20;99.90;;;;;;5064768;28;20025;-71
2021/08/28 01:26:49;;;;;;;8.10;3.70;;;15.20;99.90;;;;;;5064306;28;20051;-74
2021/08/28 01:29:20;;;;;;;5.00;3.20;;;15.10;99.90;;;;;;5064870;28;20064;-72
2021/08/28 01:31:48;;;;;;;6.13;3.20;;;15.20;99.90;;;;;;5080469;28;20029;-71
2021/08/28 01:34:16;;;;;;;6.75;4.13;;;15.20;99.90;;;;;;5064052;28;20097;-73
2021/08/28 01:36:44;;;;;;;5.68;3.42;;;15.20;99.90;;;;;;5064952;28;20032;-73
2021/08/28 01:39:11;;;;;;;5.25;3.22;;;15.20;99.90;;;;;;5065015;28;20370;-72
2021/08/28 01:41:38;;;;;;;7.10;3.13;;;15.10;99.90;;;;;;5064818;28;20029;-73
2021/08/28 01:44:09;;;;;;;7.18;3.22;;;15.10;99.90;;;;;;5064672;28;20068;-72
2021/08/28 01:46:36;;;;;;;5.45;3.03;;;15.20;99.90;;;;;;5063020;28;20497;-72
2021/08/28 01:49:02;;;;;;;7.78;3.38;;;15.20;99.90;;;;;;5064600;28;20025;-72
2021/08/28 01:51:29;;;;;;;6.43;3.28;;;15.10;99.90;;;;;;5064760;28;20036;-72
2021/08/28 01:53:55;;;;;;;3.88;2.70;;;15.20;99.90;;;;;;5064551;28;20112;-71
2021/08/28 01:56:22;;;;;;;4.28;3.03;;;15.20;99.90;;;;;;5063124;28;20075;-72
2021/08/28 01:58:47;;;;;;;4.13;3.05;;;15.10;99.90;;;;;;5064564;28;20025;-72
2021/08/28 02:01:13;;;;;;;7.03;2.65;;;15.20;99.90;;;;;;5065159;28;20064;-72
2021/08/28 02:03:38;;;;;;;6.15;3.00;;;15.10;99.90;;;;;;5064700;28;20052;-74
2021/08/28 02:06:07;;;;;;;5.88;2.75;;;15.20;99.90;;;;;;5064255;28;20143;-71
2021/08/28 02:08:42;;;;;;;5.65;3.15;;;15.10;99.90;;;;;;5063029;28;20025;-71
2021/08/28 02:11:17;;;;;;;4.00;2.42;;;15.00;99.90;;;;;;5064593;28;20092;-71
2021/08/28 02:13:53;;;;;;;12.63;3.42;;;15.10;99.90;;;;;;5064554;28;20032;-73
2021/08/28 02:16:25;;;;;;;5.13;2.95;;;15.10;99.90;;;;;;5064557;28;20079;-71
2021/08/28 02:18:59;;;;;;;5.53;3.03;;;15.10;99.90;;;;;;5062861;28;20144;-70
2021/08/28 02:21:26;;;;;;;6.03;3.20;;;15.10;99.90;;;;;;5062866;28;20029;-71
2021/08/28 02:24:09;;;;;;;7.47;3.88;;;15.10;99.90;;;;;;5064117;28;20024;-71
2021/08/28 02:26:51;;;;;;;7.57;3.42;;;15.10;99.90;;;;;;5064104;28;20033;-71
2021/08/28 02:29:21;;;;;;;10.65;3.38;;;15.10;99.90;;;;;;5064860;28;20025;-71
2021/08/28 02:31:50;;;;;;;8.45;3.80;;;15.00;99.90;;;;;;5067998;28;20044;-72
2021/08/28 02:34:18;;;;;;;5.82;3.42;;;15.00;99.90;;;;;;5067953;28;20108;-73
2021/08/28 02:36:45;;;;;;;20.70;3.80;;;15.10;99.90;;;;;;5067793;28;20457;-72
2021/08/28 02:39:12;;;;;;;9.05;4.13;;;15.00;99.90;;;;;;5068185;28;20021;-72
2021/08/28 02:41:40;;;;;;;14.00;4.10;;;15.00;99.90;;;;;;5067859;28;20021;-71
2021/08/28 02:44:07;;;;;;;8.35;4.28;;;14.90;99.90;;;;;;5067863;28;20025;-72
2021/08/28 02:46:34;;;;;;;5.72;4.03;;;15.00;99.90;;;;;;5067725;28;20036;-71
2021/08/28 02:49:02;;;;;;;12.93;4.57;;;15.10;99.90;;;;;;5067655;28;20437;-72
2021/08/28 02:51:29;;;;;;;7.57;4.15;;;15.10;99.90;;;;;;5067562;28;20520;-73
2021/08/28 02:53:59;;;;;;;8.77;4.18;;;15.00;99.90;;;;;;5067547;28;20021;-72
2021/08/28 02:56:27;;;;;;;10.43;4.55;;;14.90;99.90;;;;;;5067563;28;20029;-74
2021/08/28 02:58:53;;;;;;;6.20;3.38;;;14.90;99.90;;;;;;5067379;28;20079;-73
2021/08/28 03:01:20;;;;;;;11.32;3.03;;;14.90;99.90;;;;;;5067502;28;20029;-72
2021/08/28 03:03:47;;;;;;;10.57;4.20;;;15.00;99.90;;;;;;5067276;28;20032;-73
2021/08/28 03:06:14;;;;;;;12.95;3.55;;;14.90;99.90;;;;;;5067419;28;20036;-73
2021/08/28 03:08:44;;;;;;;11.52;2.50;;;14.90;99.90;;;;;;5067394;28;20025;-75
2021/08/28 03:11:13;;;;;;;8.13;3.30;;;14.90;99.90;;;;;;5067502;28;20039;-72
2021/08/28 03:13:39;;;;;;;5.45;3.15;;;14.90;99.90;;;;;;5067324;28;20424;-73
2021/08/28 03:16:05;;;;;;;6.85;3.25;;;15.00;99.90;;;;;;5065839;28;20029;-75
2021/08/28 03:18:38;;;;;;;9.65;3.88;;;15.10;99.90;;;;;;5066962;28;20068;-73
2021/08/28 03:21:05;;;;;;;6.38;3.75;;;15.00;99.90;;;;;;5067032;28;20021;-73
2021/08/28 03:23:32;;;;;;;6.00;3.38;;;14.90;99.90;;;;;;5066892;28;20028;-73
2021/08/28 03:25:59;;;;;;;11.65;4.28;;;14.90;99.90;;;;;;5067060;28;20048;-73
2021/08/28 03:28:26;;;;;;;7.22;3.63;;;14.90;99.90;;;;;;5066766;28;20021;-74
2021/08/28 03:30:52;;;;;;;6.57;3.03;;;14.90;99.90;;;;;;5066845;28;20041;-74
2021/08/28 03:33:20;;;;;;;6.95;3.58;;;15.00;99.90;;;;;;5066753;28;20033;-74
2021/08/28 03:35:48;;;;;;;6.28;3.10;;;15.00;99.90;;;;;;5065493;28;20036;-75
2021/08/28 03:38:14;;;;;;;6.40;3.55;;;14.90;99.90;;;;;;5066878;28;20081;-74
2021/08/28 03:40:41;;;;;;;8.48;3.55;;;14.80;99.90;;;;;;5066085;28;20504;-72
2021/08/28 03:43:09;;;;;;;6.40;3.20;;;14.90;99.90;;;;;;5066784;28;20029;-72
2021/08/28 03:45:34;;;;;;;9.25;4.07;;;14.80;99.90;;;;;;5066540;28;20064;-72
2021/08/28 03:48:01;;;;;;;7.78;3.67;;;15.00;99.90;;;;;;5066476;28;20035;-71
2021/08/28 03:50:26;;;;;;;8.43;3.42;;;14.90;99.90;;;;;;5066608;28;20025;-72
2021/08/28 03:52:52;;;;;;;7.75;4.10;;;14.80;99.90;;;;;;5066380;28;20517;-74
2021/08/28 03:55:18;;;;;;;7.40;3.80;;;14.80;99.90;;;;;;5066859;28;20032;-72
2021/08/28 03:57:44;;;;;;;9.23;4.40;;;14.90;99.90;;;;;;5065315;28;20025;-72
2021/08/28 04:00:11;;;;;;;11.43;4.50;;;14.90;99.90;;;;;;5065088;28;20025;-73
2021/08/28 04:02:36;;;;;;;11.48;4.75;;;14.80;99.90;;;;;;5066196;28;20064;-73
2021/08/28 04:05:02;;;;;;;15.43;4.35;;;14.90;99.90;;;;;;5066288;28;20047;-71
2021/08/28 04:07:28;;;;;;;8.07;3.33;;;14.90;99.90;;;;;;5065958;28;20500;-73
2021/08/28 04:09:53;;;;;;;8.38;4.40;;;14.80;99.90;;;;;;5066061;28;20029;-72
2021/08/28 04:12:19;;;;;;;7.30;3.92;;;14.80;99.90;;;;;;5065015;28;20025;-72
2021/08/28 04:14:45;;;;;;;5.65;3.13;;;14.70;99.90;;;;;;5066524;28;20029;-74
2021/08/28 04:17:10;;;;;;;7.18;3.58;;;14.90;99.90;;;;;;5066709;28;20069;-72
2021/08/28 04:19:36;;;;;;;6.25;3.45;;;14.90;99.90;;;;;;5066114;28;20615;-72
2021/08/28 04:22:02;;;;;;;7.18;3.35;;;14.90;99.90;;;;;;5065859;28;20032;-72
2021/08/28 04:24:27;;;;;;;13.02;4.85;;;14.80;99.90;;;;;;5065486;28;20059;-71
2021/08/28 04:26:53;;;;;;;9.15;3.97;;;14.80;99.90;;;;;;5065758;28;20033;-71
2021/08/28 04:29:20;;;;;;;10.65;4.25;;;14.70;99.90;;;;;;5065206;28;20048;-73
2021/08/28 04:31:45;;;;;;;6.32;3.63;;;14.80;99.90;;;;;;5065156;28;20119;-71
2021/08/28 04:34:11;;;;;;;7.68;3.05;;;14.80;99.90;;;;;;5065780;28;20029;-71
2021/08/28 04:36:37;;;;;;;5.95;3.95;;;14.80;99.90;;;;;;5065714;28;20031;-71
2021/08/28 04:39:02;;;;;;;8.25;3.58;;;14.80;99.90;;;;;;5065528;28;20059;-72
2021/08/28 04:41:28;;;;;;;7.03;3.85;;;14.80;99.90;;;;;;5065750;28;20401;-71
2021/08/28 04:43:54;;;;;;;9.40;4.30;;;14.80;99.90;;;;;;5065422;28;20033;-71
2021/08/28 04:46:20;;;;;;;6.43;3.20;;;14.90;99.90;;;;;;5080746;28;20128;-72
2021/08/28 04:48:46;;;;;;;8.30;4.38;;;14.80;99.90;;;;;;5065395;28;20036;-73
2021/08/28 04:51:12;;;;;;;7.40;3.92;;;14.80;99.90;;;;;;5065477;28;20025;-72
2021/08/28 04:53:38;;;;;;;9.25;4.57;;;14.80;99.90;;;;;;5072723;28;20029;-73
2021/08/28 04:56:04;;;;;;;7.65;4.13;;;14.80;99.90;;;;;;5056452;28;20039;-71
2021/08/28 04:58:30;;;;;;;9.82;3.15;;;14.80;99.90;;;;;;5065066;28;20033;-73
2021/08/28 05:00:55;;;;;;;9.73;4.70;;;14.80;99.90;;;;;;5063851;28;20438;-74
2021/08/28 05:03:22;;;;;;;5.93;3.70;;;14.80;99.90;;;;;;5065260;28;20032;-74
2021/08/28 05:05:49;;;;;;;9.00;4.30;;;14.80;99.90;;;;;;5065133;28;20040;-73
2021/08/28 05:08:14;;;;;;;9.30;3.95;;;14.90;99.90;;;;;;5065040;28;20067;-74
2021/08/28 05:10:40;;;;;;;8.02;3.88;;;14.80;99.90;;;;;;5080679;28;20021;-72
2021/08/28 05:13:06;;;;;;;7.70;3.90;;;15.00;99.90;;;;;;5065068;28;20021;-74
2021/08/28 05:15:32;;;;;;;15.05;3.80;;;14.80;99.90;;;;;;5064970;28;20029;-73
2021/08/28 05:18:00;;;;;;;5.00;3.05;;;15.00;99.90;;;;;;5080086;28;20045;-74
2021/08/28 05:20:26;;;;;;;9.60;4.13;;;14.90;99.90;;;;;;5063493;28;20021;-72
2021/08/28 05:22:52;;;;;;;5.57;3.08;;;15.00;99.90;;;;;;5064725;28;20055;-73
2021/08/28 05:25:17;;;;;;;9.90;4.20;;;15.00;99.90;;;;;;5064632;28;20041;-71
2021/08/28 05:27:44;;;;;;;6.35;3.65;;;14.90;99.90;;;;;;5064891;28;20036;-74
2021/08/28 05:30:10;;;;;;;7.15;3.85;;;15.00;99.90;;;;;;5080352;28;20124;-72
2021/08/28 05:32:35;;;;;;;11.55;4.32;;;15.00;99.90;;;;;;5064549;28;20024;-72
2021/08/28 05:35:01;;;;;;;13.77;4.25;;;14.90;99.90;;;;;;5064741;28;20025;-73
2021/08/28 05:37:26;;;;;;;9.32;4.07;;;15.00;99.90;;;;;;5062900;28;20021;-72
2021/08/28 05:39:52;;;;;;;9.50;4.75;;;15.00;99.90;;;;;;5064568;28;20036;-72
2021/08/28 05:42:17;;;;;;;12.07;5.30;;;15.10;99.90;;;;;;5064614;28;20025;-72
2021/08/28 05:44:43;;;;;;;16.63;4.93;;;15.00;99.90;;;;;;5064713;28;20021;-71
2021/08/28 05:47:09;;;;;;;7.55;4.07;;;15.10;99.90;;;;;;5061999;28;20041;-71
2021/08/28 05:49:34;;;;;;;8.15;4.35;;;15.20;99.90;;;;;;5056279;28;20028;-72
2021/08/28 05:52:00;;;;;;;9.38;4.60;;;15.10;99.90;;;;;;5060690;28;20052;-71
2021/08/28 05:54:25;;;;;;;9.65;4.40;;;15.10;99.90;;;;;;5052343;28;20052;-70
2021/08/28 05:56:51;;;;;;;9.80;4.82;;;15.10;99.90;;;;;;5068396;28;20040;-72
2021/08/28 05:59:17;;;;;;;11.80;4.55;;;15.10;99.90;;;;;;5059806;28;20025;-71
2021/08/28 06:01:43;;;;;;;9.45;4.97;;;15.10;99.90;;;;;;5055065;28;20058;-72
2021/08/28 06:04:12;;;;;;;10.02;5.03;;;15.20;99.90;;;;;;5063558;28;20092;-71
2021/08/28 06:06:37;;;;;;;10.02;4.68;;;15.20;99.90;;;;;;5067901;28;20099;-72
2021/08/28 06:09:03;;;;;;;8.80;5.05;;;15.30;99.90;;;;;;5067712;28;20922;-70
2021/08/28 06:11:28;;;;;;;11.02;4.93;;;15.20;99.90;;;;;;5068107;28;20017;-73
2021/08/28 06:13:54;;;;;;;11.57;4.78;;;15.40;99.90;;;;;;5068125;28;20044;-72
2021/08/28 06:16:20;;;;;;;11.50;5.47;;;15.30;99.90;;;;;;5067876;28;20047;-71
2021/08/28 06:18:46;;;;;;;11.10;5.25;;;15.40;99.90;;;;;;5068129;28;20048;-72
2021/08/28 06:21:12;;;;;;;11.93;5.65;;;15.30;99.90;;;;;;5065452;28;20037;-71
2021/08/28 06:23:38;;;;;;;12.00;5.53;;;15.30;99.90;;;;;;5058191;28;20094;-72
2021/08/28 06:26:04;;;;;;;14.77;6.68;;;15.30;99.90;;;;;;5056482;28;20041;-72
2021/08/28 06:28:30;;;;;;;12.27;5.57;;;15.40;99.90;;;;;;5048855;28;20455;-71
2021/08/28 06:30:55;;;;;;;13.45;5.35;;;15.40;99.90;;;;;;5066796;28;20036;-72
2021/08/28 06:33:21;;;;;;;11.48;5.88;;;15.40;99.90;;;;;;5067825;28;20045;-74
2021/08/28 06:35:47;;;;;;;8.55;5.25;;;15.40;99.90;;;;;;5068578;28;20036;-74
2021/08/28 06:38:14;;;;;;;11.50;6.03;;;15.40;99.90;;;;;;5068085;28;20029;-71
2021/08/28 06:40:39;;;;;;;12.98;5.68;;;15.40;99.90;;;;;;5066184;28;20032;-74
2021/08/28 06:43:05;;;;;;;11.30;5.47;;;15.30;99.90;;;;;;5066639;28;20105;-72
2021/08/28 06:45:31;;;;;;;12.10;6.00;;;15.40;99.90;;;;;;5067784;28;20037;-72
2021/08/28 06:47:56;;;;;;;11.52;6.05;;;15.50;99.90;;;;;;5083081;28;20112;-72
2021/08/28 06:50:22;;;;;;;15.15;6.10;;;15.50;99.90;;;;;;5067865;28;20028;-73
2021/08/28 06:53:00;;;;;;;15.60;5.95;;;15.40;99.90;;;;;;5067694;28;20089;-73
2021/08/28 06:55:25;;;;;;;15.65;6.05;;;15.50;99.90;;;;;;5067742;28;20017;-72
2021/08/28 06:57:51;;;;;;;13.32;6.07;;;15.50;99.90;;;;;;5067475;28;20025;-72
2021/08/28 07:00:17;;;;;;;9.95;4.82;;;15.60;99.90;;;;;;5081934;28;20029;-72
2021/08/28 07:02:44;;;;;;;7.70;4.40;;;15.50;99.90;;;;;;5067160;28;20041;-74
2021/08/28 07:05:11;;;;;;;8.43;4.32;;;15.50;99.90;;;;;;5066297;28;20037;-72
2021/08/28 07:07:36;;;;;;;8.93;4.63;;;15.40;99.90;;;;;;5066295;28;20036;-72
2021/08/28 07:10:04;;;;;;;8.40;4.63;;;15.40;99.90;;;;;;5082693;28;20452;-72
2021/08/28 07:12:29;;;;;;;9.68;4.75;;;15.40;99.90;;;;;;5067070;28;20033;-72
2021/08/28 07:14:55;;;;;;;8.32;4.65;;;15.40;99.90;;;;;;5066273;28;20147;-72
2021/08/28 07:17:21;;;;;;;8.38;4.13;;;15.50;99.90;;;;;;5065347;28;20045;-72
2021/08/28 07:19:46;;;;;;;9.43;4.13;;;15.40;99.90;;;;;;5065541;28;20029;-73
2021/08/28 07:22:13;;;;;;;10.90;4.50;;;15.40;99.90;;;;;;5067182;28;20031;-72
2021/08/28 07:24:38;;;;;;;6.78;4.03;;;15.40;99.90;;;;;;5066282;28;20035;-72
2021/08/28 07:27:04;;;;;;;7.53;4.13;;;15.40;99.90;;;;;;5066129;28;20108;-72
2021/08/28 07:29:30;;;;;;;6.00;3.92;;;15.40;99.90;;;;;;5067223;28;20021;-72
2021/08/28 07:32:01;;;;;;;7.03;3.90;;;15.40;99.90;;;;;;5066899;28;20029;-74
2021/08/28 07:34:28;;;;;;;19.58;5.45;;;15.40;99.90;;;;;;5066837;28;20517;-72
2021/08/28 07:36:53;;;;;;;8.50;4.15;;;15.40;99.90;;;;;;5066434;28;20021;-71
2021/08/28 07:39:19;;;;;;;6.70;3.65;;;15.40;99.90;;;;;;5066770;28;20029;-73
2021/08/28 07:41:45;;;;;;;10.75;3.88;;;15.50;99.90;;;;;;5066983;28;20032;-72
2021/08/28 07:44:11;;;;;;;9.13;3.53;;;15.60;99.90;;;;;;5067037;28;20409;-72
2021/08/28 07:46:37;;;;;;;8.40;3.75;;;15.70;99.90;;;;;;5066563;28;20505;-71
2021/08/28 07:49:02;;;;;;;7.60;3.92;;;15.70;99.90;;;;;;5066573;28;20028;-72
2021/08/28 07:51:28;;;;;;;9.05;5.10;;;15.70;99.90;;;;;;5066629;28;20078;-71
2021/08/28 07:53:54;;;;;;;5.38;3.22;;;15.90;99.90;;;;;;5081305;28;20119;-71
2021/08/28 07:56:19;;;;;;;10.13;4.40;;;16.00;99.90;;;;;;5066146;28;20036;-73
2021/08/28 07:58:46;;;;;;;10.93;5.05;;;16.00;99.90;;;;;;5064923;28;20598;-73
2021/08/28 08:01:13;;;;;;;7.72;4.18;;;16.00;99.90;;;;;;5066066;28;20032;-73
2021/08/28 08:03:39;;;;;;;6.30;3.63;;;16.10;99.90;;;;;;5056325;28;20035;-73
2021/08/28 08:06:04;;;;;;;5.75;3.15;;;16.10;99.90;;;;;;5064151;28;20127;-73
2021/08/28 08:08:30;;;;;;;7.93;4.53;;;16.20;99.90;;;;;;5065672;28;20028;-73
2021/08/28 08:10:56;;;;;;;4.95;3.45;;;16.20;99.90;;;;;;5065555;28;20029;-73
2021/08/28 08:13:21;;;;;;;7.75;3.38;;;16.20;99.90;;;;;;5066385;28;20066;-71
2021/08/28 08:15:47;;;;;;;8.88;3.58;;;16.20;99.90;;;;;;5064989;28;20032;-74
2021/08/28 08:18:15;;;;;;;8.57;3.00;;;16.30;99.90;;;;;;5065927;28;20072;-74
2021/08/28 08:20:46;;;;;;;7.13;3.10;;;16.40;99.90;;;;;;5070634;28;20041;-75
2021/08/28 08:23:12;;;;;;;6.10;3.33;;;16.40;99.90;;;;;;5064408;28;20032;-72
2021/08/28 08:25:38;;;;;;;5.25;2.65;;;16.50;99.90;;;;;;5065263;28;20458;-74
2021/08/28 08:28:03;;;;;;;8.02;2.90;;;16.50;99.90;;;;;;5064847;28;20059;-73
2021/08/28 08:30:29;;;;;;;5.28;2.67;;;16.50;99.90;;;;;;5064547;28;20104;-72
2021/08/28 08:32:57;;;;;;;6.53;2.97;;;16.50;99.90;;;;;;5065842;28;20385;-73
2021/08/28 08:35:22;;;;;;;5.80;2.78;;;16.40;99.90;;;;;;5065318;28;20469;-73
2021/08/28 08:37:48;;;;;;;7.18;3.20;;;16.50;99.90;;;;;;5051201;28;20052;-74
2021/08/28 08:40:14;;;;;;;5.97;2.45;;;16.30;99.90;;;;;;5066231;28;20397;-74
2021/08/28 08:42:42;;;;;;;3.38;2.38;;;16.50;99.90;;;;;;5065892;28;20025;-73
2021/08/28 08:45:08;;;;;;;4.00;2.17;;;16.50;99.90;;;;;;5064634;28;20022;-73
2021/08/28 08:47:36;;;;;;;11.00;2.70;;;16.40;99.90;;;;;;5064953;28;20029;-73
2021/08/28 08:50:02;;;;;;;7.25;3.05;;;16.40;99.90;;;;;;5065475;28;20017;-75
2021/08/28 08:52:30;;;;;;;5.45;2.85;;;16.50;99.90;;;;;;5063830;28;20075;-73
2021/08/28 08:54:56;;;;;;;5.35;2.47;;;16.50;99.90;;;;;;5064449;28;20025;-73
2021/08/28 08:57:22;;;;;;;4.53;2.15;;;16.60;99.90;;;;;;5064931;28;20027;-73
2021/08/28 08:59:48;;;;;;;6.07;2.63;;;16.60;99.90;;;;;;5065191;28;20100;-74
2021/08/28 09:02:13;;;;;;;4.32;2.25;;;16.70;99.90;;;;;;5065349;28;20040;-74
2021/08/28 09:04:39;;;;;;;2.58;1.50;;;16.80;99.90;;;;;;5065068;28;20088;-73
2021/08/28 09:07:05;;;;;;;4.32;1.63;;;16.90;99.90;;;;;;5063598;28;20037;-72
2021/08/28 09:09:31;;;;;;;3.70;1.30;;;16.90;99.90;;;;;;5065274;28;20021;-72
2021/08/28 09:12:03;;;;;;;1.90;0.95;;;16.90;99.90;;;;;;5064575;28;20024;-75
2021/08/28 09:14:29;;;;;;;1.90;1.25;;;17.00;99.90;;;;;;5064774;28;20381;-73
2021/08/28 09:16:55;;;;;;;2.55;1.27;;;17.00;99.90;;;;;;5080066;28;20025;-74
2021/08/28 09:19:40;;;;;;;2.03;1.38;;;16.90;99.90;;;;;;5060783;28;20036;-74
2021/08/28 09:22:08;;;;;;;1.17;0.75;;;16.80;99.90;;;;;;5051579;28;20029;-74
2021/08/28 09:24:47;;;;;;;1.67;1.10;;;16.70;99.90;;;;;;5061589;28;20029;-72
2021/08/28 09:27:41;;;;;;;3.58;1.25;;;16.70;99.90;;;;;;5044689;28;20061;-74
2021/08/28 09:30:27;;;;;;;1.60;0.95;;;16.60;99.90;;;;;;5045228;28;20034;-74
2021/08/28 09:32:59;;;;;;;1.88;1.13;;;16.60;99.90;;;;;;5045143;28;20033;-72
2021/08/28 09:35:33;;;;;;;2.22;1.30;;;16.60;99.90;;;;;;5059277;28;20033;-71
2021/08/28 09:38:03;;;;;;;2.63;0.85;;;16.50;99.90;;;;;;5079617;28;20438;-72
2021/08/28 09:40:34;;;;;;;2.80;1.52;;;16.50;99.90;;;;;;5063220;28;20434;-71
2021/08/28 09:43:03;;;;;;;3.28;1.50;;;16.50;99.90;;;;;;5064373;28;20052;-71
2021/08/28 09:45:29;;;;;;;2.28;1.30;;;16.50;99.90;;;;;;5064666;28;20021;-74
2021/08/28 09:47:56;;;;;;;4.32;1.35;;;16.60;99.90;;;;;;5060804;28;20036;-72
2021/08/28 09:50:39;;;;;;;4.25;1.80;;;16.50;99.90;;;;;;5057105;28;20029;-73
2021/08/28 09:53:21;;;;;;;1.77;1.20;;;16.60;99.90;;;;;;5063992;28;20044;-71
2021/08/28 09:55:54;;;;;;;3.30;1.02;;;16.70;99.90;;;;;;5063219;28;20513;-70
2021/08/28 09:58:26;;;;;;;2.17;1.38;;;16.80;99.90;;;;;;5063974;28;20025;-71
2021/08/28 10:00:58;;;;;;;2.10;1.25;;;16.80;99.90;;;;;;5059230;28;20035;-73
2021/08/28 10:03:28;;;;;;;1.27;0.95;;;16.90;99.90;;;;;;5058239;28;20097;-74
2021/08/28 10:05:55;;;;;;;1.40;0.85;;;16.90;99.90;;;;;;5062296;28;20041;-72
2021/08/28 10:08:23;;;;;;;2.88;1.00;;;16.80;99.90;;;;;;5064361;28;20029;-71
2021/08/28 10:10:50;;;;;;;1.35;0.82;;;16.80;99.90;;;;;;5062747;28;20033;-72
2021/08/28 10:13:20;;;;;;;4.10;1.30;;;16.80;99.90;;;;;;5060764;28;20028;-71
2021/08/28 10:15:47;;;;;;;1.42;0.98;;;16.80;99.90;;;;;;5059911;28;20119;-72
2021/08/28 10:18:14;;;;;;;1.95;1.02;;;16.70;99.90;;;;;;5063697;28;20041;-72
2021/08/28 10:20:40;;;;;;;0.98;0.65;;;16.70;99.90;;;;;;5063645;28;20033;-70
2021/08/28 10:23:07;;;;;;;1.23;0.55;;;16.50;99.90;;;;;;5064267;28;20100;-71
2021/08/28 10:25:38;;;;;;;1.00;0.80;;;16.60;99.90;;;;;;5064287;28;20049;-72
2021/08/28 10:28:14;;;;;;;1.20;0.38;;;16.50;99.90;;;;;;5064156;28;20438;-71
2021/08/28 10:30:41;;;;;;;1.60;0.60;;;16.50;99.90;;;;;;5055379;28;20037;-70
2021/08/28 10:33:06;;;;;;;5.43;0.93;;;16.50;99.90;;;;;;5052891;28;20026;-73
2021/08/28 10:35:33;;;;;;;1.05;0.70;;;16.50;99.90;;;;;;5058693;28;20124;-70
2021/08/28 10:37:59;;;;;;;0.50;0.43;;;16.60;99.90;;;;;;5064291;28;20037;-70
2021/08/28 10:40:31;;;;;;;0.57;0.52;;;16.60;99.90;;;;;;5064149;28;20032;-71
2021/08/28 10:43:04;;;;;;;1.65;0.77;;;16.60;99.90;;;;;;5056746;28;20474;-70
2021/08/28 10:45:39;;;;;;;0.60;0.60;;;16.70;99.90;;;;;;5043936;28;20073;-70
2021/08/28 10:48:07;;;;;;;2.53;1.50;;;16.60;99.90;;;;;;5044245;28;20068;-73
2021/08/28 10:50:37;;;;;;;1.38;0.90;;;16.80;99.90;;;;;;5056987;28;20088;-70
2021/08/28 10:53:04;;;;;;;3.08;1.10;;;16.70;99.90;;;;;;5067610;28;20029;-71
2021/08/28 10:55:37;;;;;;;1.98;0.95;;;16.70;99.90;;;;;;5067617;28;20063;-71
2021/08/28 10:58:17;;;;;;;2.20;0.95;;;16.70;99.90;;;;;;5067905;28;20033;-71
2021/08/28 11:00:54;;;;;;;0.85;0.75;;;16.70;99.90;;;;;;5066287;28;20179;-70
2021/08/28 11:03:23;;;;;;;5.07;1.02;;;16.70;99.90;;;;;;5067453;28;20032;-69
2021/08/28 11:06:15;;;;;;;1.63;0.80;;;16.70;99.90;;;;;;5067272;28;20041;-71
2021/08/28 11:08:59;;;;;;;1.27;0.70;;;16.80;99.90;;;;;;5064230;28;20037;-70
2021/08/28 11:11:27;;;;;;;;;;;16.80;99.90;;;;;;5067748;28;20539;-72
2021/08/28 11:14:06;;;;;;;2.42;1.00;;;16.80;99.90;;;;;;5067439;28;19904;-70
2021/08/28 11:16:44;;;;;;;3.28;1.27;;;17.00;99.90;;;;;;5067411;28;20085;-71
2021/08/28 11:19:11;;;;;;;2.53;1.60;;;17.00;99.90;;;;;;5067261;28;20041;-71
2021/08/28 11:21:55;;;;;;;2.10;1.38;;;17.20;99.90;;;;;;5082424;28;20063;-71
2021/08/28 11:24:22;;;;;;;1.87;1.03;;;17.30;99.90;;;;;;5066491;28;20025;-72
2021/08/28 11:26:56;;;;;;;2.17;1.10;;;17.20;99.90;;;;;;5067213;28;20116;-72
2021/08/28 11:29:30;;;;;;;2.47;1.73;;;17.30;99.90;;;;;;5066875;28;20028;-70
2021/08/28 11:32:14;;;;;;;1.83;1.35;;;17.30;99.90;;;;;;5066615;28;20040;-71
2021/08/28 11:34:45;;;;;;;2.38;1.58;;;17.20;99.90;;;;;;5067048;28;20028;-72
2021/08/28 11:37:26;;;;;;;2.60;1.45;;;17.10;99.90;;;;;;5066990;28;20032;-73
2021/08/28 11:39:53;;;;;;;5.93;1.63;;;16.90;99.90;;;;;;5066751;28;20040;-72
2021/08/28 11:42:19;;;;;;;4.28;1.70;;;16.80;99.90;;;;;;5065754;28;20021;-73
2021/08/28 11:44:50;;;;;;;3.20;1.85;;;16.80;99.90;;;;;;5066832;28;20022;-72
2021/08/28 11:47:16;;;;;;;1.98;1.38;;;16.70;99.90;;;;;;5066906;28;20496;-72
2021/08/28 11:49:42;;;;;;;5.47;1.85;;;16.70;99.90;;;;;;5066846;28;20033;-72
2021/08/28 11:52:08;;;;;;;3.72;1.60;;;16.80;99.90;;;;;;5066582;28;20025;-72
2021/08/28 11:54:34;;;;;;;3.03;1.70;;;16.70;99.90;;;;;;5065603;28;20500;-72
2021/08/28 11:57:00;;;;;;;3.47;1.90;;;16.60;99.90;;;;;;5066350;28;20032;-72
2021/08/28 11:59:37;;;;;;;2.20;1.73;;;16.60;99.90;;;;;;5064888;28;20058;-71
2021/08/28 12:02:04;;;;;;;4.30;2.25;;;16.60;99.90;;;;;;5073613;28;20097;-70
2021/08/28 12:04:37;;;;;;;4.00;2.30;;;16.50;99.90;;;;;;5046480;28;20485;-71
2021/08/28 12:07:05;;;;;;;5.03;2.58;;;16.50;99.90;;;;;;5044720;28;20033;-71
2021/08/28 12:09:32;;;;;;;4.93;2.17;;;16.60;99.90;;;;;;5044980;28;20029;-70
2021/08/28 12:11:58;;;;;;;4.05;1.95;;;16.50;99.90;;;;;;5046188;28;20025;-70
2021/08/28 12:14:27;;;;;;;18.20;2.22;;;16.60;99.90;;;;;;5065818;28;20021;-71
2021/08/28 12:16:53;;;;;;;4.13;2.63;;;16.60;99.90;;;;;;5065682;28;20108;-71
2021/08/28 12:19:29;;;;;;;4.72;1.98;;;16.50;99.90;;;;;;5080272;28;20029;-72
2021/08/28 12:22:05;;;;;;;4.32;1.95;;;16.40;99.90;;;;;;5065955;28;20033;-70
2021/08/28 12:24:40;;;;;;;3.95;1.92;;;16.50;99.90;;;;;;5081220;28;20504;-71
2021/08/28 12:27:07;;;;;;;4.72;2.38;;;16.50;99.90;;;;;;5065925;28;20076;-71
2021/08/28 12:29:36;;;;;;;2.30;1.33;;;16.50;99.90;;;;;;5065880;28;20108;-69
2021/08/28 12:32:20;;;;;;;2.78;1.95;;;16.50;99.90;;;;;;5065777;28;20032;-70
2021/08/28 12:34:58;;;;;;;2.33;1.27;;;16.50;99.90;;;;;;5065473;28;20081;-72
2021/08/28 12:37:26;;;;;;;4.40;2.17;;;16.60;99.90;;;;;;5081345;28;20065;-70
2021/08/28 12:39:53;;;;;;;4.90;1.73;;;16.60;99.90;;;;;;5065461;28;20032;-71
2021/08/28 12:42:21;;;;;;;2.70;1.70;;;16.60;99.90;;;;;;5065861;28;20081;-72
2021/08/28 12:44:49;;;;;;;2.05;1.25;;;16.60;99.90;;;;;;5079790;28;20028;-72
2021/08/28 12:47:18;;;;;;;4.32;2.05;;;16.60;99.90;;;;;;5063911;28;20045;-71
2021/08/28 12:49:43;;;;;;;2.22;1.52;;;16.60;99.90;;;;;;5065107;28;20033;-71
2021/08/28 12:52:11;;;;;;;7.35;1.45;;;16.50;99.90;;;;;;5064976;28;20055;-69